Time;durP1;ratioP1;P1;durP2;ratioP2;P2;SDS_P1;SDS_P2;PMS_P1;PMS_P2;Temp;Humidity;BMP_temperature;BMP_pressure;BME280_temperature;BME280_humidity;BME280_pressure;Samples;Min_cycle;Max_cycle;Signal;HPM_P1;HPM_P2
2023/09/01 00:02:15;;;;;;;3.95;2.40;;;;;;;;;;5073288;28;20059;-59
2023/09/01 00:04:41;;;;;;;5.40;2.80;;;;;;;;;;5073260;28;20481;-60
2023/09/01 00:07:08;;;;;;;6.47;2.90;;;;;;;;;;5073180;28;20585;-61
2023/09/01 00:09:36;;;;;;;4.20;2.33;;;;;;;;;;5073182;28;20071;-60
2023/09/01 00:12:03;;;;;;;3.92;2.47;;;;;;;;;;5073385;28;20052;-61
2023/09/01 00:14:30;;;;;;;4.15;2.65;;;;;;;;;;5073146;28;20417;-60
2023/09/01 00:16:56;;;;;;;3.60;2.20;;;;;;;;;;5073226;28;20071;-60
2023/09/01 00:19:25;;;;;;;3.90;2.30;;;;;;;;;;5072927;28;20053;-61
2023/09/01 00:21:51;;;;;;;2.70;2.28;;;;;;;;;;5072891;28;20059;-61
2023/09/01 00:24:18;;;;;;;3.00;2.10;;;;;;;;;;5073120;28;20063;-61
2023/09/01 00:26:45;;;;;;;3.60;2.28;;;;;;;;;;5073241;28;20076;-60
2023/09/01 00:29:12;;;;;;;3.47;2.17;;;;;;;;;;5072836;28;20053;-60
2023/09/01 00:31:38;;;;;;;4.25;2.92;;;;;;;;;;5072906;28;20053;-61
2023/09/01 00:34:05;;;;;;;3.40;2.30;;;;;;;;;;5072620;28;20052;-61
2023/09/01 00:36:33;;;;;;;3.58;2.28;;;;;;;;;;5073176;28;20052;-60
2023/09/01 00:39:00;;;;;;;6.57;2.65;;;;;;;;;;5073038;28;20481;-60
2023/09/01 00:41:27;;;;;;;4.60;3.15;;;;;;;;;;5073029;28;20066;-60
2023/09/01 00:43:54;;;;;;;3.45;2.35;;;;;;;;;;5072657;28;20048;-60
2023/09/01 00:46:20;;;;;;;4.35;2.60;;;;;;;;;;5072915;28;20049;-61
2023/09/01 00:48:47;;;;;;;5.05;2.85;;;;;;;;;;5072913;28;20397;-60
2023/09/01 00:51:14;;;;;;;4.60;2.80;;;;;;;;;;5072796;28;20048;-60
2023/09/01 00:53:42;;;;;;;7.53;2.80;;;;;;;;;;5072858;28;20052;-61
2023/09/01 00:56:09;;;;;;;4.72;2.63;;;;;;;;;;5072969;28;20059;-60
2023/09/01 00:58:38;;;;;;;4.13;2.92;;;;;;;;;;5072749;28;20406;-61
2023/09/01 01:01:05;;;;;;;3.75;3.28;;;;;;;;;;5073004;28;20367;-60
2023/09/01 01:03:33;;;;;;;5.22;3.15;;;;;;;;;;5072422;28;20504;-60
2023/09/01 01:06:10;;;;;;;5.00;2.47;;;;;;;;;;5072631;28;20055;-60
2023/09/01 01:08:40;;;;;;;4.10;2.55;;;;;;;;;;5072490;28;20059;-60
2023/09/01 01:11:09;;;;;;;5.50;2.63;;;;;;;;;;5072698;28;20504;-60
2023/09/01 01:13:40;;;;;;;6.30;2.72;;;;;;;;;;5072710;28;20489;-61
2023/09/01 01:16:08;;;;;;;5.68;3.10;;;;;;;;;;5072592;28;20055;-60
2023/09/01 01:18:36;;;;;;;5.28;2.95;;;;;;;;;;5076447;28;20052;-60
2023/09/01 01:21:07;;;;;;;4.80;2.63;;;;;;;;;;5076758;28;20048;-61
2023/09/01 01:23:36;;;;;;;3.92;2.00;;;;;;;;;;5076219;28;20052;-60
2023/09/01 01:26:04;;;;;;;3.97;2.80;;;;;;;;;;5076838;28;20056;-60
2023/09/01 01:28:31;;;;;;;3.90;3.03;;;;;;;;;;5076389;28;20059;-60
2023/09/01 01:30:57;;;;;;;7.38;2.55;;;;;;;;;;5076588;28;20060;-60
2023/09/01 01:33:36;;;;;;;4.65;2.92;;;;;;;;;;5076557;28;20056;-60
2023/09/01 01:36:08;;;;;;;3.25;1.92;;;;;;;;;;5076318;28;20053;-60
2023/09/01 01:38:39;;;;;;;4.22;2.42;;;;;;;;;;5076095;28;20060;-60
2023/09/01 01:41:08;;;;;;;5.55;3.00;;;;;;;;;;5076444;28;20049;-60
2023/09/01 01:43:36;;;;;;;6.07;2.30;;;;;;;;;;5076414;28;20059;-61
2023/09/01 01:46:04;;;;;;;4.60;2.83;;;;;;;;;;5076402;28;20374;-60
2023/09/01 01:48:30;;;;;;;6.32;2.85;;;;;;;;;;5075958;28;20056;-61
2023/09/01 01:50:57;;;;;;;3.35;1.98;;;;;;;;;;5075626;28;20056;-60
2023/09/01 01:53:24;;;;;;;3.42;2.47;;;;;;;;;;5076164;28;20405;-60
2023/09/01 01:55:52;;;;;;;3.53;2.53;;;;;;;;;;5076144;28;20056;-60
2023/09/01 01:58:19;;;;;;;5.65;3.20;;;;;;;;;;5076062;28;20053;-60
2023/09/01 02:00:45;;;;;;;5.18;2.63;;;;;;;;;;5076022;28;20375;-60
2023/09/01 02:03:12;;;;;;;6.30;3.15;;;;;;;;;;5075719;28;20067;-60
2023/09/01 02:05:39;;;;;;;5.15;2.67;;;;;;;;;;5075787;28;20056;-60
2023/09/01 02:08:06;;;;;;;5.15;2.53;;;;;;;;;;5075859;28;20052;-60
2023/09/01 02:10:33;;;;;;;5.65;2.80;;;;;;;;;;5075854;28;20056;-60
2023/09/01 02:13:04;;;;;;;7.00;3.33;;;;;;;;;;5075710;28;20064;-60
2023/09/01 02:15:30;;;;;;;5.15;2.85;;;;;;;;;;5075535;28;20508;-60
2023/09/01 02:17:58;;;;;;;4.57;2.38;;;;;;;;;;5075627;28;20489;-60
2023/09/01 02:20:26;;;;;;;4.00;2.63;;;;;;;;;;5075598;28;20056;-60
2023/09/01 02:22:54;;;;;;;5.95;2.65;;;;;;;;;;5075069;28;20044;-60
2023/09/01 02:25:22;;;;;;;3.20;2.45;;;;;;;;;;5075566;28;20436;-61
2023/09/01 02:27:48;;;;;;;3.88;2.08;;;;;;;;;;5075160;28;20405;-61
2023/09/01 02:30:17;;;;;;;3.55;2.63;;;;;;;;;;5075231;28;20440;-60
2023/09/01 02:32:43;;;;;;;3.88;2.53;;;;;;;;;;5074866;28;20054;-60
2023/09/01 02:35:10;;;;;;;4.68;3.00;;;;;;;;;;5075176;28;20063;-61
2023/09/01 02:37:37;;;;;;;3.50;2.17;;;;;;;;;;5074984;28;20056;-61
2023/09/01 02:40:10;;;;;;;3.08;1.83;;;;;;;;;;5075232;28;20053;-60
2023/09/01 02:42:38;;;;;;;5.45;2.50;;;;;;;;;;5074994;28;20048;-60
2023/09/01 02:45:05;;;;;;;2.60;2.10;;;;;;;;;;5074896;28;20052;-60
2023/09/01 02:47:33;;;;;;;4.90;2.08;;;;;;;;;;5074975;28;20478;-60
2023/09/01 02:50:01;;;;;;;3.50;2.30;;;;;;;;;;5074886;28;20063;-60
2023/09/01 02:52:28;;;;;;;3.42;2.53;;;;;;;;;;5075001;28;20068;-60
2023/09/01 02:54:55;;;;;;;5.53;2.63;;;;;;;;;;5074725;28;20064;-61
2023/09/01 02:57:22;;;;;;;4.68;2.47;;;;;;;;;;5075034;28;20404;-60
2023/09/01 02:59:49;;;;;;;4.65;2.47;;;;;;;;;;5074861;28;20063;-60
2023/09/01 03:02:15;;;;;;;3.83;2.38;;;;;;;;;;5074808;28;20044;-60
2023/09/01 03:04:44;;;;;;;5.35;2.50;;;;;;;;;;5074740;28;20059;-62
2023/09/01 03:07:10;;;;;;;2.60;1.50;;;;;;;;;;5074730;28;20060;-61
2023/09/01 03:09:37;;;;;;;2.78;2.03;;;;;;;;;;5074383;28;20061;-60
2023/09/01 03:12:04;;;;;;;4.28;2.60;;;;;;;;;;5074367;28;20071;-61
2023/09/01 03:14:31;;;;;;;2.55;2.10;;;;;;;;;;5074244;28;20068;-60
2023/09/01 03:16:58;;;;;;;2.65;1.42;;;;;;;;;;5074326;28;20418;-60
2023/09/01 03:19:25;;;;;;;2.88;1.95;;;;;;;;;;5074234;28;20378;-60
2023/09/01 03:21:53;;;;;;;3.83;2.33;;;;;;;;;;5074168;28;20053;-61
2023/09/01 03:24:20;;;;;;;4.25;2.17;;;;;;;;;;5073957;28;20477;-60
2023/09/01 03:26:46;;;;;;;3.30;2.13;;;;;;;;;;5074324;28;20053;-60
2023/09/01 03:29:13;;;;;;;2.50;1.60;;;;;;;;;;5074300;28;20512;-60
2023/09/01 03:31:40;;;;;;;2.63;1.58;;;;;;;;;;5073944;28;20509;-60
2023/09/01 03:34:09;;;;;;;2.35;1.67;;;;;;;;;;5073706;28;20052;-60
2023/09/01 03:36:36;;;;;;;2.58;1.67;;;;;;;;;;5074459;28;20056;-61
2023/09/01 03:39:07;;;;;;;4.28;2.28;;;;;;;;;;5073732;28;20056;-60
2023/09/01 03:41:35;;;;;;;2.30;1.45;;;;;;;;;;5073649;28;20060;-60
2023/09/01 03:44:02;;;;;;;3.15;1.67;;;;;;;;;;5073905;28;20495;-61
2023/09/01 03:46:29;;;;;;;3.63;2.47;;;;;;;;;;5074088;28;20056;-61
2023/09/01 03:48:56;;;;;;;2.92;1.92;;;;;;;;;;5073935;28;20394;-60
2023/09/01 03:51:23;;;;;;;4.22;2.10;;;;;;;;;;5073893;28;20450;-60
2023/09/01 03:53:49;;;;;;;2.90;1.90;;;;;;;;;;5073426;28;20401;-59
2023/09/01 03:56:19;;;;;;;5.18;2.53;;;;;;;;;;5071157;28;20052;-60
2023/09/01 03:58:46;;;;;;;3.53;2.00;;;;;;;;;;5073378;28;20493;-60
2023/09/01 04:01:13;;;;;;;4.82;2.92;;;;;;;;;;5073607;28;20060;-60
2023/09/01 04:03:41;;;;;;;6.95;2.67;;;;;;;;;;5073513;28;20403;-60
2023/09/01 04:06:08;;;;;;;3.05;2.17;;;;;;;;;;5073389;28;20052;-59
2023/09/01 04:08:35;;;;;;;4.63;2.30;;;;;;;;;;5073267;28;20387;-60
2023/09/01 04:11:02;;;;;;;4.82;2.60;;;;;;;;;;5073347;28;20151;-59
2023/09/01 04:13:30;;;;;;;5.47;2.38;;;;;;;;;;5072779;28;20051;-60
2023/09/01 04:15:57;;;;;;;3.10;2.25;;;;;;;;;;5073204;28;20052;-59
2023/09/01 04:18:24;;;;;;;3.80;2.10;;;;;;;;;;5073254;28;20061;-60
2023/09/01 04:20:51;;;;;;;3.78;2.55;;;;;;;;;;5072948;28;20056;-59
2023/09/01 04:23:18;;;;;;;4.18;2.60;;;;;;;;;;5073157;28;20127;-59
2023/09/01 04:25:45;;;;;;;4.45;2.33;;;;;;;;;;5073104;28;20413;-59
2023/09/01 04:28:12;;;;;;;6.68;2.40;;;;;;;;;;5072777;28;20063;-60
2023/09/01 04:30:40;;;;;;;3.38;2.17;;;;;;;;;;5072979;28;20056;-59
2023/09/01 04:33:07;;;;;;;6.95;2.58;;;;;;;;;;5072892;28;20055;-60
2023/09/01 04:35:34;;;;;;;3.70;2.47;;;;;;;;;;5072577;28;20059;-60
2023/09/01 04:38:01;;;;;;;2.40;1.70;;;;;;;;;;5072682;28;20056;-60
2023/09/01 04:40:28;;;;;;;3.55;1.90;;;;;;;;;;5072929;28;20052;-60
2023/09/01 04:42:55;;;;;;;3.17;2.15;;;;;;;;;;5072933;28;20048;-60
2023/09/01 04:45:22;;;;;;;4.55;2.33;;;;;;;;;;5072861;28;20060;-60
2023/09/01 04:47:51;;;;;;;7.30;2.90;;;;;;;;;;5072674;28;20056;-60
2023/09/01 04:50:17;;;;;;;5.07;3.53;;;;;;;;;;5072681;28;20056;-59
2023/09/01 04:52:44;;;;;;;4.97;3.03;;;;;;;;;;5071539;28;20053;-60
2023/09/01 04:55:11;;;;;;;5.13;2.85;;;;;;;;;;5072524;28;20052;-59
2023/09/01 04:57:38;;;;;;;7.50;2.70;;;;;;;;;;5072562;28;20052;-59
2023/09/01 05:00:15;;;;;;;6.47;3.83;;;;;;;;;;5072321;28;20052;-61
2023/09/01 05:02:42;;;;;;;5.40;3.05;;;;;;;;;;5072667;28;20044;-58
2023/09/01 05:05:11;;;;;;;5.45;3.20;;;;;;;;;;5072343;28;20059;-61
2023/09/01 05:07:37;;;;;;;5.60;3.00;;;;;;;;;;5072149;28;20064;-59
2023/09/01 05:10:05;;;;;;;4.07;2.63;;;;;;;;;;5072320;28;20389;-60
2023/09/01 05:12:32;;;;;;;7.13;2.90;;;;;;;;;;5072195;28;20057;-60
2023/09/01 05:14:59;;;;;;;2.88;1.95;;;;;;;;;;5072163;28;20052;-60
2023/09/01 05:17:26;;;;;;;3.10;2.08;;;;;;;;;;5072152;28;20060;-60
2023/09/01 05:19:53;;;;;;;3.25;2.10;;;;;;;;;;5072286;28;20085;-61
2023/09/01 05:22:21;;;;;;;4.82;1.98;;;;;;;;;;5072193;28;20044;-61
2023/09/01 05:24:49;;;;;;;3.42;2.30;;;;;;;;;;5071915;28;20398;-59
2023/09/01 05:27:15;;;;;;;4.90;2.47;;;;;;;;;;5072277;28;20413;-60
2023/09/01 05:29:42;;;;;;;4.28;2.55;;;;;;;;;;5072119;28;20056;-60
2023/09/01 05:32:09;;;;;;;3.58;2.40;;;;;;;;;;5072370;28;20056;-61
2023/09/01 05:34:36;;;;;;;3.40;2.15;;;;;;;;;;5071993;28;20060;-61
2023/09/01 05:37:02;;;;;;;4.65;2.15;;;;;;;;;;5072107;28;20052;-60
2023/09/01 05:39:31;;;;;;;4.18;2.35;;;;;;;;;;5071984;28;20052;-60
2023/09/01 05:41:57;;;;;;;3.20;2.50;;;;;;;;;;5072448;28;20053;-61
2023/09/01 05:44:24;;;;;;;3.35;2.40;;;;;;;;;;5072132;28;20052;-61
2023/09/01 05:46:51;;;;;;;3.90;2.20;;;;;;;;;;5072221;28;20049;-60
2023/09/01 05:49:18;;;;;;;4.50;2.50;;;;;;;;;;5071825;28;20478;-61
2023/09/01 05:51:44;;;;;;;3.55;2.03;;;;;;;;;;5071889;28;20393;-62
2023/09/01 05:54:11;;;;;;;3.95;2.42;;;;;;;;;;5071550;28;20056;-61
2023/09/01 05:56:39;;;;;;;5.35;2.83;;;;;;;;;;5071417;28;20056;-61
2023/09/01 05:59:06;;;;;;;3.35;2.55;;;;;;;;;;5071797;28;20053;-60
2023/09/01 06:01:35;;;;;;;5.30;2.58;;;;;;;;;;5072006;28;20059;-60
2023/09/01 06:04:03;;;;;;;3.83;2.20;;;;;;;;;;5074339;28;20048;-60
2023/09/01 06:06:31;;;;;;;4.22;2.50;;;;;;;;;;5075720;28;20390;-60
2023/09/01 06:08:58;;;;;;;4.22;2.55;;;;;;;;;;5075316;28;20052;-61
2023/09/01 06:11:25;;;;;;;3.83;2.10;;;;;;;;;;5075533;28;20482;-60
2023/09/01 06:13:53;;;;;;;4.13;2.35;;;;;;;;;;5075463;28;20055;-60
2023/09/01 06:16:20;;;;;;;3.03;1.90;;;;;;;;;;5075110;28;20048;-60
2023/09/01 06:18:46;;;;;;;4.90;1.77;;;;;;;;;;5074611;28;20049;-60
2023/09/01 06:21:15;;;;;;;3.03;2.50;;;;;;;;;;5075242;28;20056;-60
2023/09/01 06:23:44;;;;;;;2.63;1.58;;;;;;;;;;5074975;28;20049;-60
2023/09/01 06:26:11;;;;;;;4.75;3.03;;;;;;;;;;5075571;28;20048;-61
2023/09/01 06:28:38;;;;;;;4.78;2.60;;;;;;;;;;5075063;28;20054;-61
2023/09/01 06:31:07;;;;;;;5.20;2.70;;;;;;;;;;5075225;28;20060;-60
2023/09/01 06:33:34;;;;;;;4.07;2.60;;;;;;;;;;5075392;28;20056;-60
2023/09/01 06:36:00;;;;;;;3.47;2.53;;;;;;;;;;5075162;28;20053;-60
2023/09/01 06:38:27;;;;;;;3.03;2.28;;;;;;;;;;5075234;28;20060;-61
2023/09/01 06:40:54;;;;;;;2.85;2.15;;;;;;;;;;5075283;28;20163;-61
2023/09/01 06:43:21;;;;;;;4.28;1.67;;;;;;;;;;5075145;28;20053;-60
2023/09/01 06:45:48;;;;;;;2.60;1.63;;;;;;;;;;5075148;28;20053;-61
2023/09/01 06:48:16;;;;;;;3.60;1.30;;;;;;;;;;5074638;28;20079;-60
2023/09/01 06:50:43;;;;;;;1.80;1.20;;;;;;;;;;5074884;28;20059;-60
2023/09/01 06:53:09;;;;;;;2.60;1.27;;;;;;;;;;5074760;28;20386;-59
2023/09/01 06:55:36;;;;;;;2.35;1.17;;;;;;;;;;5074799;28;20075;-60
2023/09/01 06:58:03;;;;;;;2.13;1.40;;;;;;;;;;5074855;28;20120;-61
2023/09/01 07:00:30;;;;;;;1.70;1.10;;;;;;;;;;5074618;28;20052;-60
2023/09/01 07:02:56;;;;;;;2.40;1.23;;;;;;;;;;5074554;28;20056;-60
2023/09/01 07:05:24;;;;;;;2.05;1.10;;;;;;;;;;5074522;28;20134;-60
2023/09/01 07:07:52;;;;;;;1.85;1.40;;;;;;;;;;5074427;28;20060;-59
2023/09/01 07:10:19;;;;;;;2.05;1.00;;;;;;;;;;5074674;28;20056;-60
2023/09/01 07:12:46;;;;;;;1.65;1.50;;;;;;;;;;5074116;28;20048;-60
2023/09/01 07:15:13;;;;;;;2.45;1.10;;;;;;;;;;5073390;28;20041;-60
2023/09/01 07:17:40;;;;;;;1.58;1.10;;;;;;;;;;5074192;28;20053;-60
2023/09/01 07:20:07;;;;;;;1.75;1.00;;;;;;;;;;5074088;28;20053;-61
2023/09/01 07:22:35;;;;;;;2.13;1.38;;;;;;;;;;5073640;28;20061;-60
2023/09/01 07:25:03;;;;;;;1.55;1.05;;;;;;;;;;5074108;28;20055;-59
2023/09/01 07:27:30;;;;;;;4.15;1.35;;;;;;;;;;5074234;28;20477;-60
2023/09/01 07:29:56;;;;;;;1.95;0.90;;;;;;;;;;5074080;28;20063;-61
2023/09/01 07:32:23;;;;;;;3.28;1.33;;;;;;;;;;5073837;28;20433;-60
2023/09/01 07:34:50;;;;;;;2.08;1.25;;;;;;;;;;5073324;28;20052;-60
2023/09/01 07:37:17;;;;;;;1.98;1.00;;;;;;;;;;5073905;28;20064;-60
2023/09/01 07:39:45;;;;;;;3.83;1.30;;;;;;;;;;5073629;28;20053;-60
2023/09/01 07:42:12;;;;;;;3.88;1.38;;;;;;;;;;5073996;28;20431;-60
2023/09/01 07:44:39;;;;;;;2.40;0.82;;;;;;;;;;5073640;28;20048;-60
2023/09/01 07:47:06;;;;;;;2.10;1.10;;;;;;;;;;5073521;28;20065;-60
2023/09/01 07:49:32;;;;;;;2.00;1.10;;;;;;;;;;5073080;28;20429;-60
2023/09/01 07:51:59;;;;;;;1.80;1.00;;;;;;;;;;5073561;28;20478;-60
2023/09/01 07:54:26;;;;;;;1.55;0.90;;;;;;;;;;5073174;28;20067;-60
2023/09/01 07:56:54;;;;;;;2.35;0.70;;;;;;;;;;5073592;28;20075;-60
2023/09/01 07:59:21;;;;;;;1.75;0.80;;;;;;;;;;5073096;28;20060;-60
2023/09/01 08:01:48;;;;;;;1.33;0.70;;;;;;;;;;5073179;28;20075;-60
2023/09/01 08:04:14;;;;;;;3.13;0.73;;;;;;;;;;5072942;28;20053;-60
2023/09/01 08:06:43;;;;;;;2.08;1.05;;;;;;;;;;5072999;28;20056;-60
2023/09/01 08:09:10;;;;;;;1.90;0.93;;;;;;;;;;5073510;28;20417;-60
2023/09/01 08:11:36;;;;;;;1.50;0.80;;;;;;;;;;5073457;28;20378;-61
2023/09/01 08:14:05;;;;;;;1.40;0.80;;;;;;;;;;5073060;28;20059;-58
2023/09/01 08:16:31;;;;;;;1.73;0.90;;;;;;;;;;5073268;28;20425;-58
2023/09/01 08:18:59;;;;;;;1.30;0.70;;;;;;;;;;5073175;28;20059;-59
2023/09/01 08:21:26;;;;;;;2.35;0.80;;;;;;;;;;5073298;28;20068;-58
2023/09/01 08:23:52;;;;;;;1.65;0.88;;;;;;;;;;5072779;28;20053;-59
2023/09/01 08:26:19;;;;;;;2.67;0.85;;;;;;;;;;5072983;28;20528;-59
2023/09/01 08:28:46;;;;;;;1.30;0.85;;;;;;;;;;5073055;28;20508;-58
2023/09/01 08:31:14;;;;;;;2.45;0.73;;;;;;;;;;5072949;28;20401;-58
2023/09/01 08:33:41;;;;;;;1.25;0.55;;;;;;;;;;5073012;28;20057;-58
2023/09/01 08:36:08;;;;;;;0.88;0.70;;;;;;;;;;5072661;28;20055;-59
2023/09/01 08:38:35;;;;;;;0.88;0.40;;;;;;;;;;5072875;28;20063;-59
2023/09/01 08:41:02;;;;;;;1.02;0.63;;;;;;;;;;5072944;28;20063;-59
2023/09/01 08:43:30;;;;;;;0.50;0.30;;;;;;;;;;5072497;28;20512;-58
2023/09/01 08:45:58;;;;;;;2.20;0.87;;;;;;;;;;5072624;28;20049;-59
2023/09/01 08:48:26;;;;;;;0.88;0.50;;;;;;;;;;5072396;28;20060;-58
2023/09/01 08:50:53;;;;;;;0.40;0.20;;;;;;;;;;5072506;28;20076;-61
2023/09/01 08:53:20;;;;;;;0.50;0.30;;;;;;;;;;5072610;28;20053;-60
2023/09/01 08:55:48;;;;;;;1.17;0.65;;;;;;;;;;5072466;28;20053;-60
2023/09/01 08:58:17;;;;;;;0.57;0.35;;;;;;;;;;5072592;28;20064;-60
2023/09/01 09:00:44;;;;;;;0.88;0.47;;;;;;;;;;5072684;28;20052;-60
2023/09/01 09:03:11;;;;;;;2.10;0.98;;;;;;;;;;5072330;28;20048;-60
2023/09/01 09:05:40;;;;;;;2.50;0.45;;;;;;;;;;5072642;28;20060;-60
2023/09/01 09:08:08;;;;;;;0.80;0.30;;;;;;;;;;5072543;28;20059;-60
2023/09/01 09:10:36;;;;;;;1.23;0.63;;;;;;;;;;5072590;28;20063;-60
2023/09/01 09:13:04;;;;;;;0.52;0.35;;;;;;;;;;5072465;28;20053;-60
2023/09/01 09:15:32;;;;;;;0.60;0.30;;;;;;;;;;5072214;28;20044;-60
2023/09/01 09:17:59;;;;;;;0.40;0.28;;;;;;;;;;5072480;28;20056;-60
2023/09/01 09:20:36;;;;;;;0.32;0.28;;;;;;;;;;5072316;28;20056;-60
2023/09/01 09:23:04;;;;;;;0.52;0.32;;;;;;;;;;5072381;28;20052;-59
2023/09/01 09:25:31;;;;;;;0.52;0.30;;;;;;;;;;5072279;28;20049;-60
2023/09/01 09:27:59;;;;;;;6.32;0.68;;;;;;;;;;5072253;28;20402;-60
2023/09/01 09:30:26;;;;;;;1.13;0.52;;;;;;;;;;5072377;28;20385;-59
2023/09/01 09:33:03;;;;;;;0.93;0.43;;;;;;;;;;5072401;28;20056;-60
2023/09/01 09:35:30;;;;;;;0.70;0.40;;;;;;;;;;5071854;28;20053;-60
2023/09/01 09:37:57;;;;;;;0.30;0.20;;;;;;;;;;5073131;28;20060;-60
2023/09/01 09:40:25;;;;;;;0.70;0.50;;;;;;;;;;5076339;28;20473;-60
2023/09/01 09:42:52;;;;;;;0.88;0.50;;;;;;;;;;5075799;28;20044;-61
2023/09/01 09:45:23;;;;;;;1.15;0.52;;;;;;;;;;5076281;28;20048;-59
2023/09/01 09:47:51;;;;;;;0.90;0.50;;;;;;;;;;5076171;28;20057;-60
2023/09/01 09:50:18;;;;;;;2.78;0.50;;;;;;;;;;5076148;28;20056;-60
2023/09/01 09:52:48;;;;;;;1.70;0.93;;;;;;;;;;5075536;28;20059;-60
2023/09/01 09:55:18;;;;;;;0.73;0.50;;;;;;;;;;5075941;28;20481;-60
2023/09/01 09:57:48;;;;;;;0.93;0.60;;;;;;;;;;5075722;28;20048;-61
2023/09/01 10:00:15;;;;;;;1.80;0.60;;;;;;;;;;5075810;28;20052;-60
2023/09/01 10:02:46;;;;;;;0.75;0.50;;;;;;;;;;5075665;28;20052;-60
2023/09/01 10:05:13;;;;;;;0.90;0.47;;;;;;;;;;5075553;28;20052;-60
2023/09/01 10:07:40;;;;;;;1.30;0.70;;;;;;;;;;5075120;28;20063;-60
2023/09/01 10:10:07;;;;;;;1.13;0.60;;;;;;;;;;5075429;28;20409;-61
2023/09/01 10:12:34;;;;;;;1.35;0.75;;;;;;;;;;5075438;28;20413;-61
2023/09/01 10:15:04;;;;;;;1.02;0.60;;;;;;;;;;5075250;28;20075;-61
2023/09/01 10:17:33;;;;;;;1.50;0.73;;;;;;;;;;5075008;28;20067;-61
2023/09/01 10:20:01;;;;;;;1.50;0.77;;;;;;;;;;5075164;28;20409;-61
2023/09/01 10:22:27;;;;;;;1.85;0.90;;;;;;;;;;5074881;28;20052;-60
2023/09/01 10:25:10;;;;;;;1.30;0.57;;;;;;;;;;5075215;28;20373;-61
2023/09/01 10:27:37;;;;;;;1.42;0.90;;;;;;;;;;5074667;28;20056;-61
2023/09/01 10:30:19;;;;;;;2.30;0.55;;;;;;;;;;5074894;28;20052;-61
2023/09/01 10:32:47;;;;;;;1.48;0.65;;;;;;;;;;5074400;28;20052;-61
2023/09/01 10:35:26;;;;;;;1.98;0.73;;;;;;;;;;5074616;28;20060;-61
2023/09/01 10:38:07;;;;;;;1.38;0.70;;;;;;;;;;5074819;28;20053;-61
2023/09/01 10:40:41;;;;;;;0.73;0.40;;;;;;;;;;5074805;28;20052;-61
2023/09/01 10:43:08;;;;;;;0.90;0.50;;;;;;;;;;5074924;28;20064;-61
2023/09/01 10:45:36;;;;;;;1.10;0.45;;;;;;;;;;5074738;28;20393;-61
2023/09/01 10:48:11;;;;;;;1.13;0.55;;;;;;;;;;5074650;28;20052;-61
2023/09/01 10:50:40;;;;;;;0.82;0.45;;;;;;;;;;5073476;28;20057;-61
2023/09/01 10:53:25;;;;;;;0.82;0.32;;;;;;;;;;5075003;28;20057;-61
2023/09/01 10:56:08;;;;;;;0.60;0.30;;;;;;;;;;5074622;28;20071;-61
2023/09/01 10:58:38;;;;;;;0.80;0.50;;;;;;;;;;5074554;28;20057;-61
2023/09/01 11:01:32;;;;;;;1.20;0.40;;;;;;;;;;5074825;28;20049;-61
2023/09/01 11:04:17;;;;;;;0.90;0.38;;;;;;;;;;5038392;28;20059;-61
2023/09/01 11:07:03;;;;;;;1.02;0.40;;;;;;;;;;5074427;28;20048;-61
2023/09/01 11:09:44;;;;;;;0.30;0.20;;;;;;;;;;5074094;28;20063;-61
2023/09/01 11:12:12;;;;;;;1.95;0.65;;;;;;;;;;5074501;28;20052;-61
2023/09/01 11:14:53;;;;;;;0.73;0.28;;;;;;;;;;5074316;28;20076;-61
2023/09/01 11:17:32;;;;;;;0.75;0.40;;;;;;;;;;5074352;28;20509;-61
2023/09/01 11:19:59;;;;;;;0.63;0.40;;;;;;;;;;5074126;28;20056;-61
2023/09/01 11:22:27;;;;;;;0.60;0.30;;;;;;;;;;5073947;28;20059;-60
2023/09/01 11:24:54;;;;;;;1.52;0.70;;;;;;;;;;5074380;28;20060;-61
2023/09/01 11:27:22;;;;;;;1.10;0.47;;;;;;;;;;5074277;28;20461;-61
2023/09/01 11:29:54;;;;;;;0.90;0.38;;;;;;;;;;5074183;28;20378;-61
2023/09/01 11:32:26;;;;;;;0.47;0.25;;;;;;;;;;5073913;28;20057;-59
2023/09/01 11:34:53;;;;;;;0.45;0.25;;;;;;;;;;5073925;28;20402;-60
2023/09/01 11:37:35;;;;;;;1.17;0.43;;;;;;;;;;5074043;28;20051;-61
2023/09/01 11:40:04;;;;;;;0.57;0.30;;;;;;;;;;5074080;28;20393;-61
2023/09/01 11:42:33;;;;;;;0.50;0.30;;;;;;;;;;5073786;28;20052;-61
2023/09/01 11:45:00;;;;;;;0.30;0.10;;;;;;;;;;5073883;28;20504;-60
2023/09/01 11:47:27;;;;;;;0.40;0.17;;;;;;;;;;5073846;28;20066;-61
2023/09/01 11:49:54;;;;;;;2.47;0.40;;;;;;;;;;5073876;28;20053;-61
2023/09/01 11:52:21;;;;;;;0.68;0.35;;;;;;;;;;5073470;28;20052;-61
2023/09/01 11:54:49;;;;;;;0.68;0.43;;;;;;;;;;5073362;28;20064;-61
2023/09/01 11:57:16;;;;;;;0.73;0.30;;;;;;;;;;5073808;28;20072;-61
2023/09/01 11:59:46;;;;;;;0.63;0.32;;;;;;;;;;5073566;28;20059;-61
2023/09/01 12:02:13;;;;;;;0.60;0.50;;;;;;;;;;5073236;28;20059;-61
2023/09/01 12:04:45;;;;;;;0.30;0.17;;;;;;;;;;5072874;28;20057;-61
2023/09/01 12:07:21;;;;;;;0.25;0.08;;;;;;;;;;5073077;28;20481;-60
2023/09/01 12:09:50;;;;;;;0.20;0.20;;;;;;;;;;5073090;28;20063;-60
2023/09/01 12:12:17;;;;;;;0.50;0.40;;;;;;;;;;5073132;28;20053;-60
2023/09/01 12:14:44;;;;;;;0.20;0.20;;;;;;;;;;5073198;28;20056;-60
2023/09/01 12:17:18;;;;;;;0.32;0.15;;;;;;;;;;5073040;28;20049;-61
2023/09/01 12:19:49;;;;;;;0.30;0.20;;;;;;;;;;5072954;28;20492;-61
2023/09/01 12:22:17;;;;;;;0.60;0.30;;;;;;;;;;5073062;28;20067;-60
2023/09/01 12:24:51;;;;;;;0.45;0.25;;;;;;;;;;5072657;28;20057;-60
2023/09/01 12:27:18;;;;;;;1.02;0.20;;;;;;;;;;5072719;28;20048;-60
2023/09/01 12:29:45;;;;;;;1.70;0.70;;;;;;;;;;5073210;28;20052;-61
2023/09/01 12:32:12;;;;;;;0.75;0.35;;;;;;;;;;5073007;28;20063;-60
2023/09/01 12:34:39;;;;;;;0.82;0.30;;;;;;;;;;5072731;28;20057;-60
2023/09/01 12:37:06;;;;;;;0.70;0.30;;;;;;;;;;5072594;28;20056;-60
2023/09/01 12:39:34;;;;;;;0.87;0.50;;;;;;;;;;5072814;28;20056;-60
2023/09/01 12:42:03;;;;;;;1.05;0.60;;;;;;;;;;5072951;28;20056;-61
2023/09/01 12:44:30;;;;;;;1.20;0.60;;;;;;;;;;5072723;28;20067;-59
2023/09/01 12:46:57;;;;;;;0.50;0.20;;;;;;;;;;5072877;28;20051;-60
2023/09/01 12:49:23;;;;;;;0.50;0.20;;;;;;;;;;5072543;28;20049;-60
2023/09/01 12:51:50;;;;;;;0.68;0.43;;;;;;;;;;5072753;28;20414;-60
2023/09/01 12:54:17;;;;;;;1.55;0.52;;;;;;;;;;5072219;28;20052;-60
2023/09/01 12:56:44;;;;;;;0.50;0.32;;;;;;;;;;5072572;28;20053;-60
2023/09/01 12:59:12;;;;;;;0.50;0.20;;;;;;;;;;5072418;28;20083;-61
2023/09/01 13:01:39;;;;;;;0.65;0.30;;;;;;;;;;5072300;28;20489;-60
2023/09/01 13:04:06;;;;;;;0.70;0.40;;;;;;;;;;5072247;28;20417;-61
2023/09/01 13:06:33;;;;;;;0.50;0.20;;;;;;;;;;5071986;28;20056;-60
2023/09/01 13:09:01;;;;;;;0.93;0.50;;;;;;;;;;5072518;28;20056;-61
2023/09/01 13:11:28;;;;;;;0.83;0.20;;;;;;;;;;5072696;28;20056;-60
2023/09/01 13:13:55;;;;;;;0.47;0.22;;;;;;;;;;5071683;28;20405;-61
2023/09/01 13:16:29;;;;;;;0.50;0.30;;;;;;;;;;5072401;28;20060;-60
2023/09/01 13:18:56;;;;;;;0.77;0.30;;;;;;;;;;5072166;28;20059;-61
2023/09/01 13:21:23;;;;;;;0.25;0.15;;;;;;;;;;5072540;28;20048;-60
2023/09/01 13:23:50;;;;;;;0.57;0.40;;;;;;;;;;5072141;28;20489;-60
2023/09/01 13:26:17;;;;;;;0.57;0.30;;;;;;;;;;5072481;28;20060;-60
2023/09/01 13:28:44;;;;;;;0.35;0.20;;;;;;;;;;5072387;28;20060;-59
2023/09/01 13:31:11;;;;;;;2.97;0.45;;;;;;;;;;5072118;28;20481;-59
2023/09/01 13:33:40;;;;;;;0.22;0.20;;;;;;;;;;5071927;28;20410;-59
2023/09/01 13:36:08;;;;;;;0.90;0.45;;;;;;;;;;5071396;28;20064;-59
2023/09/01 13:38:35;;;;;;;0.63;0.40;;;;;;;;;;5072046;28;20512;-59
2023/09/01 13:41:02;;;;;;;1.27;0.60;;;;;;;;;;5071980;28;20053;-59
2023/09/01 13:43:29;;;;;;;0.90;0.50;;;;;;;;;;5072057;28;20144;-59
2023/09/01 13:45:56;;;;;;;0.88;0.60;;;;;;;;;;5072001;28;20401;-60
2023/09/01 13:48:23;;;;;;;3.10;1.13;;;;;;;;;;5071428;28;20520;-60
2023/09/01 13:50:51;;;;;;;0.90;0.60;;;;;;;;;;5071720;28;20059;-60
2023/09/01 13:53:18;;;;;;;1.35;0.60;;;;;;;;;;5071781;28;20583;-60
2023/09/01 13:55:44;;;;;;;1.02;0.63;;;;;;;;;;5071949;28;20405;-60
2023/09/01 13:58:11;;;;;;;0.70;0.40;;;;;;;;;;5071814;28;20402;-60
2023/09/01 14:00:38;;;;;;;1.30;0.60;;;;;;;;;;5071853;28;20401;-60
2023/09/01 14:03:05;;;;;;;0.75;0.43;;;;;;;;;;5071898;28;20049;-59
2023/09/01 14:05:32;;;;;;;1.30;0.50;;;;;;;;;;5071646;28;20060;-60
2023/09/01 14:08:00;;;;;;;1.30;0.63;;;;;;;;;;5071701;28;20056;-60
2023/09/01 14:10:27;;;;;;;1.17;0.60;;;;;;;;;;5071842;28;20048;-59
2023/09/01 14:12:53;;;;;;;0.90;0.70;;;;;;;;;;5071682;28;20056;-60
2023/09/01 14:15:20;;;;;;;2.30;0.82;;;;;;;;;;5071399;28;20048;-60
2023/09/01 14:17:47;;;;;;;1.58;0.80;;;;;;;;;;5071402;28;20052;-60
2023/09/01 14:20:14;;;;;;;1.75;1.00;;;;;;;;;;5071433;28;20052;-60
2023/09/01 14:22:40;;;;;;;1.25;0.80;;;;;;;;;;5071481;28;20052;-59
2023/09/01 14:25:09;;;;;;;1.40;0.90;;;;;;;;;;5074167;28;20048;-59
2023/09/01 14:27:36;;;;;;;1.50;0.77;;;;;;;;;;5075010;28;20477;-60
2023/09/01 14:30:03;;;;;;;1.00;0.60;;;;;;;;;;5075127;28;20835;-59
2023/09/01 14:32:29;;;;;;;1.67;0.88;;;;;;;;;;5074974;28;20052;-59
2023/09/01 14:34:56;;;;;;;1.63;0.77;;;;;;;;;;5074721;28;20059;-61
2023/09/01 14:37:23;;;;;;;1.98;0.70;;;;;;;;;;5074812;28;20382;-60
2023/09/01 14:39:50;;;;;;;1.17;0.63;;;;;;;;;;5074899;28;20056;-60
2023/09/01 14:42:18;;;;;;;3.67;0.88;;;;;;;;;;5074682;28;20059;-60
2023/09/01 14:44:45;;;;;;;1.65;0.57;;;;;;;;;;5074783;28;20520;-60
2023/09/01 14:47:12;;;;;;;2.05;0.50;;;;;;;;;;5074567;28;20063;-60
2023/09/01 14:49:38;;;;;;;0.77;0.40;;;;;;;;;;5074475;28;20055;-61